Time;durP1;ratioP1;P1;durP2;ratioP2;P2;SDS_P1;SDS_P2;PMS_P1;PMS_P2;Temp;Humidity;BMP_temperature;BMP_pressure;BME280_temperature;BME280_humidity;BME280_pressure;Samples;Min_cycle;Max_cycle;Signal;HPM_P1;HPM_P2
2022/07/06 00:02:13;;;;;;;3.03;2.30;;;16.50;99.90;;;;;;5078770;28;20228;-78
2022/07/06 00:04:40;;;;;;;2.50;2.30;;;16.50;99.90;;;;;;5065805;28;20200;-78
2022/07/06 00:07:08;;;;;;;2.50;2.30;;;16.50;99.90;;;;;;5074355;28;20189;-77
2022/07/06 00:09:35;;;;;;;2.43;2.23;;;16.40;99.90;;;;;;5080642;28;20193;-78
2022/07/06 00:12:02;;;;;;;2.77;2.30;;;16.40;99.90;;;;;;5062475;28;20227;-78
2022/07/06 00:14:29;;;;;;;3.57;2.23;;;16.40;99.90;;;;;;5058847;28;20207;-78
2022/07/06 00:16:56;;;;;;;2.73;2.40;;;16.40;99.90;;;;;;5064183;28;20344;-78
2022/07/06 00:19:23;;;;;;;2.63;2.37;;;16.30;99.90;;;;;;5061451;28;20271;-78
2022/07/06 00:21:49;;;;;;;2.30;2.10;;;16.30;99.90;;;;;;5083549;28;20709;-78
2022/07/06 00:24:18;;;;;;;2.53;2.27;;;16.30;99.90;;;;;;5056011;28;20192;-78
2022/07/06 00:26:45;;;;;;;2.50;2.30;;;16.30;99.90;;;;;;5076392;28;20207;-78
2022/07/06 00:29:12;;;;;;;2.43;2.23;;;16.20;99.90;;;;;;5062683;28;20633;-78
2022/07/06 00:31:40;;;;;;;2.73;2.30;;;16.20;99.90;;;;;;5064134;28;20221;-78
2022/07/06 00:34:07;;;;;;;2.40;2.20;;;16.20;99.90;;;;;;5066060;28;20270;-76
2022/07/06 00:36:34;;;;;;;3.13;2.43;;;16.20;99.90;;;;;;5066212;28;20729;-78
2022/07/06 00:39:01;;;;;;;2.50;2.30;;;16.20;99.90;;;;;;5070092;28;20215;-78
2022/07/06 00:41:29;;;;;;;3.00;2.57;;;16.10;99.90;;;;;;5059061;28;20217;-78
2022/07/06 00:43:57;;;;;;;2.83;2.40;;;16.10;99.90;;;;;;5085637;28;20791;-78
2022/07/06 00:46:29;;;;;;;2.80;2.43;;;16.00;99.90;;;;;;5066539;28;20252;-78
2022/07/06 00:48:56;;;;;;;2.60;2.40;;;16.00;99.90;;;;;;5084372;28;20185;-78
2022/07/06 00:51:29;;;;;;;3.67;2.50;;;16.00;99.90;;;;;;5063491;28;20227;-78
2022/07/06 00:53:58;;;;;;;3.27;2.47;;;15.90;99.90;;;;;;5067224;28;20656;-78
2022/07/06 00:56:26;;;;;;;2.37;2.17;;;15.80;99.90;;;;;;5058019;28;20727;-78
2022/07/06 00:58:56;;;;;;;2.60;2.27;;;15.80;99.90;;;;;;5086264;28;20195;-78
2022/07/06 01:01:23;;;;;;;3.40;2.97;;;15.70;99.90;;;;;;5061441;28;20247;-78
2022/07/06 01:03:50;;;;;;;2.80;2.43;;;15.70;99.90;;;;;;5084200;28;20204;-78
2022/07/06 01:06:16;;;;;;;2.77;2.57;;;15.60;99.90;;;;;;5067486;28;20197;-79
2022/07/06 01:08:43;;;;;;;4.20;2.70;;;15.60;99.90;;;;;;5067627;28;20201;-79
2022/07/06 01:11:11;;;;;;;3.20;2.90;;;15.50;99.90;;;;;;5085387;28;20688;-79
2022/07/06 01:13:38;;;;;;;2.90;2.70;;;15.50;99.90;;;;;;5058980;28;20210;-78
2022/07/06 01:16:06;;;;;;;2.70;2.50;;;15.50;99.90;;;;;;5085000;28;20212;-79
2022/07/06 01:18:33;;;;;;;3.03;2.67;;;15.50;99.90;;;;;;5063021;28;20191;-79
2022/07/06 01:21:12;;;;;;;2.97;2.77;;;15.50;99.90;;;;;;5087336;28;20195;-79
2022/07/06 01:23:43;;;;;;;2.63;2.43;;;15.50;99.90;;;;;;5083086;28;20190;-79
2022/07/06 01:26:12;;;;;;;2.50;2.30;;;15.50;99.90;;;;;;5065744;28;20194;-78
2022/07/06 01:28:39;;;;;;;2.80;2.53;;;15.50;99.90;;;;;;5067537;28;20192;-78
2022/07/06 01:31:06;;;;;;;3.60;2.60;;;15.50;99.90;;;;;;5076490;28;20196;-79
2022/07/06 01:33:33;;;;;;;2.57;2.37;;;15.50;99.90;;;;;;5087409;28;20218;-79
2022/07/06 01:36:00;;;;;;;4.00;2.90;;;15.50;99.90;;;;;;5062927;28;20202;-78
2022/07/06 01:38:28;;;;;;;2.60;2.40;;;15.40;99.90;;;;;;5086220;28;20192;-79
2022/07/06 01:40:55;;;;;;;2.67;2.43;;;15.40;99.90;;;;;;5064971;28;20206;-78
2022/07/06 01:43:22;;;;;;;2.60;2.40;;;15.40;99.90;;;;;;5065063;28;20409;-78
2022/07/06 01:45:49;;;;;;;3.90;2.50;;;15.30;99.90;;;;;;5084934;28;20580;-78
2022/07/06 01:48:16;;;;;;;2.87;2.57;;;15.30;99.90;;;;;;5061065;28;20249;-78
2022/07/06 01:50:43;;;;;;;2.70;2.50;;;15.30;99.90;;;;;;5079630;28;20640;-78
2022/07/06 01:53:10;;;;;;;2.83;2.53;;;15.20;99.90;;;;;;5055761;28;20212;-78
2022/07/06 01:55:39;;;;;;;3.07;2.40;;;15.20;99.90;;;;;;5064335;28;20228;-78
2022/07/06 01:58:06;;;;;;;2.53;2.33;;;15.20;99.90;;;;;;5067410;28;20194;-78
2022/07/06 02:00:33;;;;;;;3.53;3.10;;;15.20;99.90;;;;;;5063171;28;20611;-78
2022/07/06 02:03:00;;;;;;;2.80;2.50;;;15.20;99.90;;;;;;5066764;22;20225;-81
2022/07/06 02:05:27;;;;;;;2.50;2.30;;;15.10;99.90;;;;;;5030427;28;20657;-80
2022/07/06 02:07:53;;;;;;;3.00;2.70;;;15.10;99.90;;;;;;5047689;28;20197;-81
2022/07/06 02:10:20;;;;;;;2.70;2.50;;;15.00;99.90;;;;;;5050173;28;20207;-81
2022/07/06 02:12:48;;;;;;;2.60;2.40;;;15.00;99.90;;;;;;5029327;28;20217;-81
2022/07/06 02:15:16;;;;;;;3.63;2.80;;;15.00;99.90;;;;;;5028077;28;20221;-81
2022/07/06 02:17:43;;;;;;;2.70;2.50;;;15.00;99.90;;;;;;5030476;28;20196;-81
2022/07/06 02:20:10;;;;;;;2.73;2.53;;;14.90;99.90;;;;;;5045984;28;20188;-82
2022/07/06 02:22:37;;;;;;;2.73;2.53;;;14.90;99.90;;;;;;5048916;28;20229;-82
2022/07/06 02:25:05;;;;;;;2.77;2.50;;;14.90;99.90;;;;;;5029927;28;20226;-82
2022/07/06 02:27:32;;;;;;;2.70;2.50;;;14.90;99.90;;;;;;5028163;28;20199;-82
2022/07/06 02:30:05;;;;;;;3.00;2.80;;;15.00;99.90;;;;;;5029276;28;20204;-82
2022/07/06 02:32:33;;;;;;;2.90;2.70;;;14.90;99.90;;;;;;5030747;28;20224;-82
2022/07/06 02:35:00;;;;;;;2.87;2.60;;;14.90;99.90;;;;;;5029315;28;20270;-82
2022/07/06 02:37:27;;;;;;;2.70;2.50;;;14.90;99.90;;;;;;5027832;28;20215;-82
2022/07/06 02:39:54;;;;;;;3.00;2.57;;;14.90;99.90;;;;;;5049535;28;20604;-82
2022/07/06 02:42:21;;;;;;;3.37;2.50;;;14.90;99.90;;;;;;5025992;28;20220;-83
2022/07/06 02:44:48;;;;;;;2.87;2.57;;;14.90;99.90;;;;;;5038090;28;20188;-82
2022/07/06 02:47:17;;;;;;;3.07;2.60;;;14.90;99.90;;;;;;5034920;28;20710;-83
2022/07/06 02:49:44;;;;;;;3.43;2.97;;;14.80;99.90;;;;;;5039086;28;20207;-82
2022/07/06 02:52:11;;;;;;;3.17;2.87;;;14.80;99.90;;;;;;5024462;28;20212;-79
2022/07/06 02:54:38;;;;;;;3.07;2.77;;;14.70;99.90;;;;;;5027883;28;20214;-77
2022/07/06 02:57:05;;;;;;;2.57;2.37;;;14.70;99.90;;;;;;5018443;28;20685;-80
2022/07/06 02:59:32;;;;;;;3.03;2.73;;;14.70;99.90;;;;;;5026871;28;20644;-80
2022/07/06 03:01:59;;;;;;;2.97;2.67;;;14.60;99.90;;;;;;5026318;28;20251;-79
2022/07/06 03:04:29;;;;;;;3.20;2.90;;;14.50;99.90;;;;;;5009888;28;20199;-80
2022/07/06 03:06:56;;;;;;;4.53;3.07;;;14.50;99.90;;;;;;5012509;28;20301;-81
2022/07/06 03:09:24;;;;;;;3.50;3.00;;;14.50;99.90;;;;;;5018807;28;20283;-80
2022/07/06 03:11:50;;;;;;;3.70;3.30;;;14.50;99.90;;;;;;5018901;28;20220;-78
2022/07/06 03:14:19;;;;;;;4.00;3.50;;;14.50;99.90;;;;;;5015515;28;20209;-81
2022/07/06 03:16:49;;;;;;;3.13;2.83;;;14.50;99.90;;;;;;5023695;28;20198;-80
2022/07/06 03:19:16;;;;;;;5.27;3.43;;;14.50;99.90;;;;;;5026392;28;20188;-79
2022/07/06 03:21:44;;;;;;;3.97;3.23;;;14.50;99.90;;;;;;5028858;28;20211;-82
2022/07/06 03:24:11;;;;;;;5.27;3.53;;;14.50;99.90;;;;;;5018150;28;20192;-79
2022/07/06 03:26:38;;;;;;;7.23;3.60;;;14.50;99.90;;;;;;5026237;28;20199;-80
2022/07/06 03:29:05;;;;;;;3.70;3.27;;;14.50;99.90;;;;;;5020756;28;20290;-79
2022/07/06 03:31:32;;;;;;;4.17;3.00;;;14.50;99.90;;;;;;5022456;28;20196;-79
2022/07/06 03:34:00;;;;;;;4.07;3.23;;;14.50;99.90;;;;;;5027562;28;20198;-80
2022/07/06 03:36:28;;;;;;;3.47;3.17;;;14.50;99.90;;;;;;5020877;28;20196;-79
2022/07/06 03:38:57;;;;;;;4.17;3.23;;;14.50;99.90;;;;;;5028068;28;20225;-80
2022/07/06 03:41:24;;;;;;;3.27;2.97;;;14.50;99.90;;;;;;5026029;28;20228;-80
2022/07/06 03:43:51;;;;;;;4.00;3.40;;;14.50;99.90;;;;;;5030590;28;20196;-81
2022/07/06 03:46:18;;;;;;;4.53;3.40;;;14.50;99.90;;;;;;5029555;28;20199;-80
2022/07/06 03:48:45;;;;;;;5.87;4.43;;;14.50;99.90;;;;;;5028163;28;20231;-80
2022/07/06 03:51:13;;;;;;;8.43;5.77;;;14.50;99.90;;;;;;5031896;28;20203;-80
2022/07/06 03:53:40;;;;;;;12.47;6.43;;;14.40;99.90;;;;;;5024124;28;20223;-80
2022/07/06 03:58:53;;;;;;;7.73;5.17;;;14.40;99.90;;;;;;5030079;28;20584;-80
2022/07/06 04:01:20;;;;;;;8.37;5.70;;;14.50;99.90;;;;;;5026796;28;20751;-80
2022/07/06 04:03:47;;;;;;;9.77;6.83;;;14.50;99.90;;;;;;5024583;28;20196;-80
2022/07/06 04:06:15;;;;;;;9.47;6.33;;;14.60;99.90;;;;;;5030835;28;20192;-80
2022/07/06 04:08:41;;;;;;;13.40;8.33;;;14.60;99.90;;;;;;5031774;28;20295;-80
2022/07/06 04:11:10;;;;;;;11.93;7.67;;;14.70;99.90;;;;;;5035792;28;20564;-80
2022/07/06 04:13:38;;;;;;;11.57;7.43;;;14.80;99.90;;;;;;5032011;28;20208;-80
2022/07/06 04:16:06;;;;;;;14.07;8.63;;;14.80;99.90;;;;;;5032288;28;20216;-80
2022/07/06 04:18:33;;;;;;;13.33;8.27;;;14.90;99.90;;;;;;5031949;28;20661;-80
2022/07/06 04:21:02;;;;;;;11.83;8.50;;;14.90;99.90;;;;;;5027200;28;20205;-79
2022/07/06 04:23:30;;;;;;;9.87;7.27;;;15.00;99.90;;;;;;5025151;28;20298;-80
2022/07/06 04:25:58;;;;;;;11.13;7.73;;;15.10;99.90;;;;;;5030307;28;20620;-79
2022/07/06 04:28:28;;;;;;;11.60;7.33;;;15.20;99.90;;;;;;5031791;28;20668;-79
2022/07/06 04:30:54;;;;;;;9.57;7.03;;;15.30;99.90;;;;;;5040537;28;20192;-79
2022/07/06 04:33:24;;;;;;;8.93;6.70;;;15.40;99.90;;;;;;5014831;28;20216;-79
2022/07/06 04:35:51;;;;;;;9.03;6.30;;;15.40;99.90;;;;;;5034049;28;20215;-80
2022/07/06 04:38:19;;;;;;;8.03;5.67;;;15.60;99.90;;;;;;5029018;28;20216;-80
2022/07/06 04:40:48;;;;;;;8.90;5.90;;;15.70;99.90;;;;;;5027150;28;20206;-79
2022/07/06 04:43:17;;;;;;;7.67;5.50;;;15.80;99.90;;;;;;5031500;28;20729;-80
2022/07/06 04:45:46;;;;;;;7.03;4.87;;;16.00;99.90;;;;;;5026173;28;20203;-81
2022/07/06 04:48:13;;;;;;;6.70;4.63;;;16.20;99.90;;;;;;5029293;28;20201;-81
2022/07/06 04:50:40;;;;;;;4.70;4.20;;;16.30;99.90;;;;;;5018898;28;20194;-80
2022/07/06 04:53:10;;;;;;;4.30;3.43;;;16.40;99.90;;;;;;5033055;28;20221;-80
2022/07/06 04:55:37;;;;;;;3.47;3.17;;;16.80;99.90;;;;;;5031054;28;20214;-80
2022/07/06 04:58:04;;;;;;;6.07;3.20;;;17.20;99.90;;;;;;5033954;28;20664;-80
2022/07/06 05:00:33;;;;;;;3.70;2.77;;;17.50;99.90;;;;;;5030473;28;20207;-81
2022/07/06 05:03:01;;;;;;;3.10;2.83;;;17.70;99.90;;;;;;5032613;28;20246;-81
2022/07/06 05:05:28;;;;;;;2.67;2.47;;;17.90;99.90;;;;;;5031469;28;20199;-80
2022/07/06 05:07:55;;;;;;;4.33;3.03;;;17.90;99.90;;;;;;5027332;28;20192;-80
2022/07/06 05:10:22;;;;;;;3.03;2.60;;;17.80;99.90;;;;;;5031534;28;20200;-81
2022/07/06 05:12:53;;;;;;;3.10;2.80;;;17.80;99.90;;;;;;5032102;28;20215;-81
2022/07/06 05:15:20;;;;;;;3.17;2.63;;;17.90;99.90;;;;;;5024438;28;20218;-81
2022/07/06 05:17:47;;;;;;;2.83;2.63;;;18.00;99.90;;;;;;5030140;28;20751;-81
2022/07/06 05:20:16;;;;;;;4.80;4.50;;;18.20;99.90;;;;;;5035880;28;20191;-81
2022/07/06 05:22:45;;;;;;;4.20;3.90;;;18.20;99.90;;;;;;5034105;28;20270;-80
2022/07/06 05:25:14;;;;;;;5.00;4.60;;;18.30;99.90;;;;;;5030412;28;20199;-81
2022/07/06 05:27:42;;;;;;;5.33;4.93;;;18.60;99.90;;;;;;5029894;28;20201;-81
2022/07/06 05:30:10;;;;;;;3.90;3.70;;;18.70;99.90;;;;;;5022628;28;20190;-81
2022/07/06 05:32:37;;;;;;;4.17;3.23;;;18.80;99.90;;;;;;5030809;28;20213;-81
2022/07/06 05:35:05;;;;;;;3.67;3.20;;;18.80;99.90;;;;;;5032886;28;20763;-81
2022/07/06 05:37:33;;;;;;;5.77;4.33;;;18.80;99.90;;;;;;5030172;28;20192;-80
2022/07/06 05:40:00;;;;;;;3.87;3.30;;;18.80;99.90;;;;;;5026652;28;20203;-81
2022/07/06 05:42:27;;;;;;;5.33;4.93;;;19.00;99.90;;;;;;5028205;28;20234;-81
2022/07/06 05:44:56;;;;;;;7.23;6.73;;;19.30;99.90;;;;;;5030182;28;20194;-81
2022/07/06 05:50:15;;;;;;;7.00;6.50;;;20.30;99.90;;;;;;5051970;28;20601;-81
2022/07/06 05:52:59;;;;;;;5.07;4.67;;;20.90;99.90;;;;;;5038962;28;20215;-81
2022/07/06 05:55:27;;;;;;;4.23;3.77;;;21.50;99.90;;;;;;5037453;28;20238;-81
2022/07/06 05:57:55;;;;;;;3.57;3.27;;;22.20;99.90;;;;;;5032737;28;20759;-81
2022/07/06 06:00:24;;;;;;;4.73;3.77;;;22.60;99.90;;;;;;5029720;28;20199;-81
2022/07/06 06:02:54;;;;;;;6.83;6.33;;;23.10;99.90;;;;;;5027463;28;20356;-81
2022/07/06 06:05:22;;;;;;;7.37;6.87;;;23.30;99.90;;;;;;5029998;28;20242;-81
2022/07/06 06:07:52;;;;;;;7.07;6.57;;;23.60;99.90;;;;;;5032248;28;20197;-81
2022/07/06 06:10:23;;;;;;;6.37;5.40;;;24.00;99.90;;;;;;5033196;28;20605;-81
2022/07/06 06:12:52;;;;;;;6.60;6.10;;;23.80;99.90;;;;;;5031459;28;20215;-81
2022/07/06 06:15:20;;;;;;;5.20;4.80;;;24.20;99.90;;;;;;5030908;28;20294;-82
2022/07/06 06:17:47;;;;;;;4.83;4.30;;;24.40;99.90;;;;;;5030903;28;20579;-83
2022/07/06 06:20:15;;;;;;;3.83;2.73;;;24.40;99.90;;;;;;5047247;28;20250;-82
2022/07/06 06:22:47;;;;;;;6.20;5.60;;;24.30;99.90;;;;;;5047425;28;20211;-82
2022/07/06 06:25:14;;;;;;;6.47;6.00;;;24.40;99.90;;;;;;5022446;28;20203;-82
2022/07/06 06:27:42;;;;;;;6.73;6.13;;;24.50;99.90;;;;;;5032210;28;20547;-82
2022/07/06 06:30:10;;;;;;;6.63;6.00;;;24.90;99.90;;;;;;5055774;28;20660;-81
2022/07/06 06:32:37;;;;;;;5.67;3.30;;;24.90;99.90;;;;;;5031759;28;20278;-82
2022/07/06 06:35:04;;;;;;;3.53;3.20;;;25.10;99.90;;;;;;5056260;28;20691;-81
2022/07/06 06:37:31;;;;;;;7.20;6.57;;;25.00;99.90;;;;;;5049490;28;20253;-82
2022/07/06 06:39:58;;;;;;;5.53;5.03;;;25.10;99.90;;;;;;5039249;28;20214;-82
2022/07/06 06:42:24;;;;;;;4.90;4.50;;;25.20;99.90;;;;;;5049705;28;20227;-82
2022/07/06 06:44:53;;;;;;;7.80;6.70;;;25.10;99.90;;;;;;5037756;28;20246;-82
2022/07/06 06:47:20;;;;;;;7.63;6.90;;;25.20;99.90;;;;;;5030420;28;20199;-81
2022/07/06 06:49:47;;;;;;;7.57;6.87;;;25.00;99.90;;;;;;5038089;28;20687;-81
2022/07/06 06:52:14;;;;;;;6.77;6.13;;;25.20;99.90;;;;;;5049539;28;20251;-81
2022/07/06 06:54:41;;;;;;;6.97;6.30;;;24.90;99.90;;;;;;5055349;28;20618;-81
2022/07/06 06:57:08;;;;;;;8.43;7.87;;;24.70;99.90;;;;;;5031682;28;20227;-81
2022/07/06 06:59:35;;;;;;;6.40;5.90;;;25.10;99.90;;;;;;5037326;28;20234;-81
2022/07/06 07:02:03;;;;;;;6.30;5.80;;;25.00;99.90;;;;;;5032646;28;20238;-80
2022/07/06 07:04:30;;;;;;;4.93;4.50;;;25.10;99.90;;;;;;5038016;28;20195;-82
2022/07/06 07:06:57;;;;;;;6.40;5.80;;;25.40;99.90;;;;;;5051233;28;20191;-82
2022/07/06 07:09:24;;;;;;;6.50;5.93;;;25.70;99.90;;;;;;5049484;28;20196;-82
2022/07/06 07:11:51;;;;;;;6.47;4.73;;;26.00;99.90;;;;;;5030264;28;20218;-81
2022/07/06 07:14:18;;;;;;;7.00;6.50;;;26.10;99.90;;;;;;5025319;28;20219;-82
2022/07/06 07:16:45;;;;;;;7.07;5.83;;;26.20;99.70;;;;;;5040563;28;20648;-82
2022/07/06 07:19:13;;;;;;;7.30;6.50;;;25.90;98.90;;;;;;5035126;28;20203;-81
2022/07/06 07:21:42;;;;;;;7.37;6.60;;;25.50;99.30;;;;;;5028208;28;20227;-82
2022/07/06 07:24:09;;;;;;;3.73;2.80;;;25.40;99.60;;;;;;5030132;28;20223;-82
2022/07/06 07:26:37;;;;;;;5.73;3.63;;;25.50;99.90;;;;;;5032056;28;20610;-82
2022/07/06 07:29:04;;;;;;;5.07;4.57;;;25.40;99.70;;;;;;5033923;28;20218;-82
2022/07/06 07:31:30;;;;;;;4.73;2.60;;;25.20;99.80;;;;;;5054256;28;20203;-81
2022/07/06 07:33:58;;;;;;;3.77;2.57;;;25.40;99.90;;;;;;5050364;28;20203;-81
2022/07/06 07:36:27;;;;;;;5.70;5.30;;;25.90;99.90;;;;;;5034583;28;20237;-82
2022/07/06 07:38:53;;;;;;;4.10;3.80;;;25.80;99.90;;;;;;5052242;28;20206;-81
2022/07/06 07:41:20;;;;;;;6.67;6.10;;;25.90;99.50;;;;;;5035836;28;20198;-82
2022/07/06 07:43:47;;;;;;;6.60;6.10;;;26.00;99.80;;;;;;5051798;28;20199;-82
2022/07/06 07:46:14;;;;;;;6.43;5.90;;;25.90;99.80;;;;;;5048944;28;20214;-82
2022/07/06 07:48:41;;;;;;;6.90;6.30;;;26.10;98.90;;;;;;5037967;28;20233;-82
2022/07/06 07:51:09;;;;;;;6.77;6.17;;;26.20;99.90;;;;;;5026777;28;20267;-81
2022/07/06 07:53:37;;;;;;;7.67;4.60;;;25.80;99.30;;;;;;5050849;28;20215;-82
2022/07/06 07:56:04;;;;;;;4.60;2.57;;;26.20;99.90;;;;;;5046288;28;20228;-81
2022/07/06 07:58:31;;;;;;;5.47;4.97;;;25.90;99.60;;;;;;5028035;28;20676;-81
2022/07/06 08:00:58;;;;;;;8.17;6.17;;;26.10;99.40;;;;;;5025191;28;20202;-81
2022/07/06 08:03:25;;;;;;;3.92;2.55;;;26.20;99.90;;;;;;5072637;22;20454;-81
2022/07/06 08:05:52;;;;;;;4.90;4.50;;;26.30;98.80;;;;;;5066857;28;20194;-81
2022/07/06 08:08:19;;;;;;;6.53;5.93;;;26.10;99.90;;;;;;5086205;28;20195;-80
2022/07/06 08:10:48;;;;;;;6.23;5.73;;;26.50;99.20;;;;;;5072067;28;20190;-80
2022/07/06 08:13:15;;;;;;;6.40;5.90;;;26.80;98.50;;;;;;5056350;28;20251;-80
2022/07/06 08:15:43;;;;;;;5.97;5.57;;;27.10;98.20;;;;;;5088236;28;20210;-80
2022/07/06 08:18:10;;;;;;;6.50;6.10;;;27.30;98.20;;;;;;5054696;28;20464;-78
2022/07/06 08:20:38;;;;;;;6.43;5.80;;;27.30;98.00;;;;;;5063350;28;20658;-78
2022/07/06 08:23:05;;;;;;;7.10;6.40;;;27.30;97.70;;;;;;5066685;28;20215;-78
2022/07/06 08:25:32;;;;;;;5.43;4.83;;;26.90;97.20;;;;;;5077074;28;20286;-78
2022/07/06 08:28:02;;;;;;;2.83;2.60;;;26.70;97.60;;;;;;5073986;28;20799;-79
2022/07/06 08:30:31;;;;;;;3.20;2.73;;;26.60;98.60;;;;;;5074469;28;20720;-78
2022/07/06 08:32:58;;;;;;;3.37;2.77;;;26.70;98.60;;;;;;5075835;28;20229;-79
2022/07/06 08:35:24;;;;;;;5.10;3.03;;;26.90;98.70;;;;;;5054842;28;20233;-78
2022/07/06 08:37:51;;;;;;;4.50;3.73;;;26.90;98.20;;;;;;5064345;28;20194;-78
2022/07/06 08:40:18;;;;;;;3.97;2.60;;;26.60;97.40;;;;;;5078308;28;20218;-80
2022/07/06 08:42:48;;;;;;;4.50;3.20;;;26.60;98.50;;;;;;5064635;28;20217;-78
2022/07/06 08:45:18;;;;;;;6.53;3.13;;;26.30;98.40;;;;;;5059433;28;20244;-80
2022/07/06 08:47:45;;;;;;;4.30;3.90;;;25.90;97.50;;;;;;5064292;28;20220;-79
2022/07/06 08:50:12;;;;;;;6.80;6.10;;;26.00;99.70;;;;;;5084009;28;20182;-80
2022/07/06 08:52:39;;;;;;;6.53;5.93;;;26.60;98.50;;;;;;5065143;28;20261;-81
2022/07/06 08:55:09;;;;;;;6.43;5.70;;;26.80;97.80;;;;;;5080229;28;20595;-80
2022/07/06 08:57:36;;;;;;;4.47;3.60;;;27.10;98.00;;;;;;5082233;28;20231;-80
2022/07/06 09:00:03;;;;;;;3.67;2.37;;;27.50;98.20;;;;;;5069934;28;20228;-80
2022/07/06 09:02:32;;;;;;;6.00;5.53;;;27.60;97.40;;;;;;5070952;28;20233;-78
2022/07/06 09:05:01;;;;;;;6.63;5.97;;;27.80;97.40;;;;;;5082090;28;20224;-78
2022/07/06 09:07:29;;;;;;;6.00;5.60;;;27.90;97.70;;;;;;5082921;28;20191;-78
2022/07/06 09:09:56;;;;;;;5.80;5.30;;;27.90;96.80;;;;;;5071465;28;20296;-78
2022/07/06 09:12:23;;;;;;;6.33;5.73;;;27.70;96.30;;;;;;5058998;28;20214;-78
2022/07/06 09:14:51;;;;;;;5.80;5.30;;;27.30;96.20;;;;;;5066424;28;20195;-78
2022/07/06 09:17:18;;;;;;;3.83;2.50;;;27.30;97.00;;;;;;5085370;28;20194;-78
2022/07/06 09:19:47;;;;;;;2.80;2.40;;;27.20;97.00;;;;;;5085843;28;20235;-78
2022/07/06 09:22:27;;;;;;;3.60;2.67;;;27.40;97.30;;;;;;5068720;28;20305;-78
2022/07/06 09:24:54;;;;;;;5.40;4.97;;;28.00;97.00;;;;;;5079872;28;20682;-78
2022/07/06 09:27:22;;;;;;;5.73;3.53;;;28.20;95.80;;;;;;5066242;28;20226;-78
2022/07/06 09:29:49;;;;;;;5.93;5.43;;;28.10;96.10;;;;;;5065083;28;20198;-77
2022/07/06 09:32:20;;;;;;;3.40;2.40;;;28.30;96.00;;;;;;5066933;28;20787;-79
2022/07/06 09:34:49;;;;;;;4.27;3.97;;;28.60;95.70;;;;;;5092350;28;20191;-78
2022/07/06 09:37:16;;;;;;;4.77;3.83;;;28.80;94.40;;;;;;5063196;28;20241;-81
2022/07/06 09:39:44;;;;;;;6.67;4.63;;;28.80;95.30;;;;;;5066867;28;20258;-80
2022/07/06 09:42:10;;;;;;;5.90;4.87;;;28.50;94.10;;;;;;5063336;28;20715;-79
2022/07/06 09:44:39;;;;;;;5.00;4.50;;;28.30;94.60;;;;;;5060917;28;20194;-80
2022/07/06 09:47:08;;;;;;;6.37;5.73;;;28.60;95.70;;;;;;5085078;28;20186;-80
2022/07/06 09:49:35;;;;;;;6.13;5.63;;;28.70;94.40;;;;;;5077064;28;20269;-79
2022/07/06 09:52:05;;;;;;;6.40;6.00;;;28.40;95.80;;;;;;5058480;28;20248;-79
2022/07/06 09:54:34;;;;;;;6.80;6.23;;;28.80;94.40;;;;;;5067966;28;20200;-78
2022/07/06 09:57:01;;;;;;;7.20;6.50;;;28.80;94.80;;;;;;5067429;28;20242;-81
2022/07/06 09:59:30;;;;;;;6.03;5.47;;;28.70;94.70;;;;;;5086062;28;20651;-79
2022/07/06 10:01:59;;;;;;;6.73;5.23;;;28.40;93.00;;;;;;5068047;28;20205;-78
2022/07/06 10:04:27;;;;;;;4.93;4.60;;;28.00;93.00;;;;;;5076430;28;20678;-78
2022/07/06 10:06:54;;;;;;;4.70;3.00;;;27.90;94.50;;;;;;5086124;28;20187;-78
2022/07/06 10:09:24;;;;;;;3.33;2.43;;;28.20;93.70;;;;;;5076000;28;20190;-78
2022/07/06 10:11:53;;;;;;;3.57;2.60;;;28.30;94.40;;;;;;5058197;28;20195;-78
2022/07/06 10:14:22;;;;;;;2.90;2.60;;;28.70;93.40;;;;;;5064266;28;20203;-78
2022/07/06 10:16:50;;;;;;;3.27;2.60;;;29.00;94.50;;;;;;5065777;28;20218;-79
2022/07/06 10:19:18;;;;;;;5.90;5.40;;;29.30;93.80;;;;;;5062603;28;20210;-78
2022/07/06 10:21:45;;;;;;;4.47;2.93;;;28.80;94.10;;;;;;5083066;28;20187;-78
2022/07/06 10:24:13;;;;;;;2.97;2.60;;;28.40;93.40;;;;;;5082782;28;20208;-78
2022/07/06 10:26:42;;;;;;;4.13;3.83;;;28.20;93.50;;;;;;5064326;28;20502;-78
2022/07/06 10:29:10;;;;;;;6.03;5.53;;;27.60;94.00;;;;;;5056758;28;20198;-78
2022/07/06 10:31:40;;;;;;;4.70;4.30;;;26.90;94.40;;;;;;5077799;28;20199;-78
2022/07/06 10:34:10;;;;;;;2.77;2.53;;;26.60;96.60;;;;;;5084728;28;20214;-78
2022/07/06 10:36:41;;;;;;;6.27;5.87;;;26.90;95.20;;;;;;5061749;28;20226;-78
2022/07/06 10:41:54;;;;;;;5.77;2.30;;;28.10;95.40;;;;;;5075661;28;20194;-78
2022/07/06 10:44:22;;;;;;;6.00;5.60;;;28.30;94.00;;;;;;5069287;28;20662;-78
2022/07/06 10:46:54;;;;;;;6.07;5.60;;;28.50;93.30;;;;;;5077269;28;20182;-78
2022/07/06 10:49:22;;;;;;;6.47;5.87;;;28.50;93.80;;;;;;5074003;28;20201;-78
2022/07/06 10:51:50;;;;;;;6.20;5.60;;;28.40;93.20;;;;;;5059700;28;20277;-77
2022/07/06 10:54:17;;;;;;;5.80;5.40;;;28.30;94.10;;;;;;5078829;28;20230;-78
2022/07/06 10:56:46;;;;;;;6.33;5.73;;;28.30;94.50;;;;;;5062161;28;20264;-78
2022/07/06 10:59:16;;;;;;;5.00;4.00;;;28.20;95.00;;;;;;5062539;28;20209;-77
2022/07/06 11:02:14;;;;;;;5.93;5.43;;;27.60;93.80;;;;;;5087037;28;20214;-78
2022/07/06 11:04:42;;;;;;;5.10;3.97;;;27.40;92.90;;;;;;5078308;28;20673;-78
2022/07/06 11:07:10;;;;;;;6.43;5.93;;;27.20;94.30;;;;;;5055513;28;20206;-78
2022/07/06 11:09:38;;;;;;;6.50;6.00;;;27.30;94.00;;;;;;5078698;28;20197;-78
2022/07/06 11:12:15;;;;;;;3.70;3.40;;;27.40;93.40;;;;;;5064086;28;20214;-78
2022/07/06 11:14:43;;;;;;;5.13;4.73;;;27.30;95.70;;;;;;5079271;28;20194;-79
2022/07/06 11:17:11;;;;;;;3.93;3.40;;;27.30;95.40;;;;;;5057135;28;20634;-78
2022/07/06 11:19:39;;;;;;;3.93;3.40;;;27.20;96.10;;;;;;5061101;28;20540;-78
2022/07/06 11:22:08;;;;;;;5.90;4.60;;;26.90;95.40;;;;;;5082805;28;20231;-78
2022/07/06 11:24:37;;;;;;;9.80;6.43;;;26.20;96.60;;;;;;5064372;28;20227;-78
2022/07/06 11:27:06;;;;;;;6.47;5.90;;;26.00;95.20;;;;;;5076371;28;20199;-78
2022/07/06 11:29:36;;;;;;;3.97;2.57;;;25.80;96.10;;;;;;5089667;28;20209;-78
2022/07/06 11:32:05;;;;;;;4.67;4.27;;;26.00;97.50;;;;;;5070689;28;20241;-79
2022/07/06 11:34:34;;;;;;;5.47;4.97;;;26.40;96.70;;;;;;5066880;28;20195;-80
2022/07/06 11:37:03;;;;;;;4.40;2.70;;;26.50;96.60;;;;;;5077863;28;20214;-79
2022/07/06 11:39:31;;;;;;;6.10;2.70;;;26.40;95.80;;;;;;5064325;28;20203;-79
2022/07/06 11:41:58;;;;;;;4.53;2.77;;;26.20;95.30;;;;;;5080204;28;20202;-78
2022/07/06 11:44:25;;;;;;;6.57;5.97;;;25.80;94.50;;;;;;5078580;28;20190;-79
2022/07/06 11:46:52;;;;;;;5.47;4.90;;;25.60;96.00;;;;;;5065544;28;20574;-78
2022/07/06 11:49:21;;;;;;;2.90;2.30;;;25.60;95.80;;;;;;5057686;28;20252;-79
2022/07/06 11:51:48;;;;;;;2.27;2.10;;;25.80;97.00;;;;;;5080027;28;20206;-80
2022/07/06 11:54:16;;;;;;;3.57;2.43;;;25.90;95.80;;;;;;5068733;28;20280;-80
2022/07/06 11:56:51;;;;;;;3.40;2.30;;;26.10;96.40;;;;;;5081422;28;20195;-79
2022/07/06 11:59:22;;;;;;;4.03;2.57;;;26.20;96.70;;;;;;5058146;28;20190;-81
2022/07/06 12:01:49;;;;;;;2.57;2.37;;;26.00;95.50;;;;;;5083613;28;20186;-79
2022/07/06 12:04:16;;;;;;;5.47;2.33;;;25.90;96.10;;;;;;5055051;28;20672;-79
2022/07/06 12:06:46;;;;;;;2.97;2.40;;;25.70;95.90;;;;;;5054786;28;20244;-79
2022/07/06 12:09:14;;;;;;;2.97;2.77;;;25.80;96.40;;;;;;5059236;28;20194;-79
2022/07/06 12:11:46;;;;;;;5.70;5.30;;;25.60;96.20;;;;;;5063834;28;20206;-79
2022/07/06 12:14:17;;;;;;;5.93;5.43;;;25.30;96.70;;;;;;5071846;28;20206;-79
2022/07/06 12:16:45;;;;;;;3.53;2.70;;;25.00;97.30;;;;;;5063757;28;20565;-79
2022/07/06 12:19:12;;;;;;;4.60;4.20;;;25.10;96.50;;;;;;5065507;28;20297;-79
2022/07/06 12:21:46;;;;;;;5.90;5.40;;;25.00;97.00;;;;;;5074700;28;20666;-79
2022/07/06 12:24:19;;;;;;;6.13;5.60;;;25.20;97.60;;;;;;5072811;28;20192;-79
2022/07/06 12:26:46;;;;;;;2.83;2.50;;;25.50;97.60;;;;;;5078743;28;20273;-79
2022/07/06 12:29:14;;;;;;;2.60;2.33;;;25.60;97.30;;;;;;5066674;28;20248;-77
2022/07/06 12:31:42;;;;;;;3.83;2.57;;;25.30;97.30;;;;;;5086910;28;20194;-80
2022/07/06 12:34:14;;;;;;;2.60;2.40;;;25.40;98.10;;;;;;5064090;28;20612;-81
2022/07/06 12:36:46;;;;;;;3.03;2.30;;;25.50;97.80;;;;;;5086371;28;20202;-80
2022/07/06 12:39:15;;;;;;;5.27;2.70;;;25.50;98.10;;;;;;5081660;28;20556;-80
2022/07/06 12:41:46;;;;;;;5.17;4.67;;;25.70;97.90;;;;;;5060994;28;20644;-79
2022/07/06 12:44:13;;;;;;;7.10;5.50;;;25.60;98.30;;;;;;5075115;28;20202;-78
2022/07/06 12:46:41;;;;;;;3.93;2.60;;;25.60;96.90;;;;;;5061024;28;20198;-78
2022/07/06 12:49:17;;;;;;;2.63;2.40;;;25.50;98.70;;;;;;5080871;28;20190;-79
2022/07/06 12:51:57;;;;;;;3.03;2.70;;;25.70;98.40;;;;;;5082695;28;20182;-79
2022/07/06 12:54:26;;;;;;;3.63;2.40;;;26.00;98.50;;;;;;5064715;28;20258;-80
2022/07/06 12:57:13;;;;;;;7.10;6.33;;;26.10;97.10;;;;;;5084420;28;20248;-79
2022/07/06 12:59:42;;;;;;;3.83;3.47;;;25.70;96.60;;;;;;5086842;28;20221;-80